sensor_id;sensor_type;location;lat;lon;timestamp;P1;durP1;ratioP1;P2;durP2;ratioP2
10277;SDS011;5184;51.376;7.148;2022-11-20T00:00:15;26.30;;;17.97;;
10277;SDS011;5184;51.376;7.148;2022-11-20T00:02:41;27.27;;;17.53;;
10277;SDS011;5184;51.376;7.148;2022-11-20T00:05:08;25.03;;;17.30;;
10277;SDS011;5184;51.376;7.148;2022-11-20T00:07:35;22.73;;;16.10;;
10277;SDS011;5184;51.376;7.148;2022-11-20T00:10:01;26.03;;;17.27;;
10277;SDS011;5184;51.376;7.148;2022-11-20T00:12:29;23.33;;;17.30;;
10277;SDS011;5184;51.376;7.148;2022-11-20T00:14:56;21.87;;;14.53;;
10277;SDS011;5184;51.376;7.148;2022-11-20T00:17:23;25.80;;;18.37;;
10277;SDS011;5184;51.376;7.148;2022-11-20T00:19:49;26.47;;;19.03;;
10277;SDS011;5184;51.376;7.148;2022-11-20T00:22:16;24.23;;;16.67;;
10277;SDS011;5184;51.376;7.148;2022-11-20T00:24:43;22.60;;;16.43;;
10277;SDS011;5184;51.376;7.148;2022-11-20T00:27:10;23.30;;;16.30;;
10277;SDS011;5184;51.376;7.148;2022-11-20T00:29:38;21.10;;;15.63;;
10277;SDS011;5184;51.376;7.148;2022-11-20T00:32:04;19.40;;;14.90;;
10277;SDS011;5184;51.376;7.148;2022-11-20T00:34:31;20.57;;;15.07;;
10277;SDS011;5184;51.376;7.148;2022-11-20T00:36:58;22.17;;;15.57;;
10277;SDS011;5184;51.376;7.148;2022-11-20T00:39:25;22.03;;;15.70;;
10277;SDS011;5184;51.376;7.148;2022-11-20T00:41:52;21.20;;;15.53;;
10277;SDS011;5184;51.376;7.148;2022-11-20T00:44:19;22.37;;;15.20;;
10277;SDS011;5184;51.376;7.148;2022-11-20T00:46:46;21.30;;;15.37;;
10277;SDS011;5184;51.376;7.148;2022-11-20T00:49:12;19.30;;;14.73;;
10277;SDS011;5184;51.376;7.148;2022-11-20T00:51:39;23.17;;;16.13;;
10277;SDS011;5184;51.376;7.148;2022-11-20T00:54:06;22.27;;;15.00;;
10277;SDS011;5184;51.376;7.148;2022-11-20T00:56:33;22.83;;;16.73;;
10277;SDS011;5184;51.376;7.148;2022-11-20T00:59:00;23.80;;;16.13;;
10277;SDS011;5184;51.376;7.148;2022-11-20T01:01:26;20.73;;;14.83;;
10277;SDS011;5184;51.376;7.148;2022-11-20T01:03:54;22.03;;;15.73;;
10277;SDS011;5184;51.376;7.148;2022-11-20T01:06:22;22.97;;;15.27;;
10277;SDS011;5184;51.376;7.148;2022-11-20T01:08:48;20.80;;;15.37;;
10277;SDS011;5184;51.376;7.148;2022-11-20T01:11:15;20.23;;;15.10;;
10277;SDS011;5184;51.376;7.148;2022-11-20T01:13:41;21.33;;;15.53;;
10277;SDS011;5184;51.376;7.148;2022-11-20T01:16:23;22.23;;;15.70;;
10277;SDS011;5184;51.376;7.148;2022-11-20T01:18:49;22.80;;;15.67;;
10277;SDS011;5184;51.376;7.148;2022-11-20T01:21:19;22.93;;;16.00;;
10277;SDS011;5184;51.376;7.148;2022-11-20T01:23:45;24.07;;;16.80;;
10277;SDS011;5184;51.376;7.148;2022-11-20T01:26:13;24.77;;;17.43;;
10277;SDS011;5184;51.376;7.148;2022-11-20T01:28:39;20.63;;;14.93;;
10277;SDS011;5184;51.376;7.148;2022-11-20T01:33:38;23.47;;;15.93;;
10277;SDS011;5184;51.376;7.148;2022-11-20T01:36:05;22.63;;;16.10;;
10277;SDS011;5184;51.376;7.148;2022-11-20T01:38:33;26.17;;;16.33;;
10277;SDS011;5184;51.376;7.148;2022-11-20T01:40:59;21.70;;;15.73;;
10277;SDS011;5184;51.376;7.148;2022-11-20T01:43:26;19.87;;;14.50;;
10277;SDS011;5184;51.376;7.148;2022-11-20T01:45:56;22.20;;;15.63;;
10277;SDS011;5184;51.376;7.148;2022-11-20T01:48:22;22.70;;;16.07;;
10277;SDS011;5184;51.376;7.148;2022-11-20T01:50:49;22.93;;;16.57;;
10277;SDS011;5184;51.376;7.148;2022-11-20T01:53:17;22.67;;;16.20;;
10277;SDS011;5184;51.376;7.148;2022-11-20T01:55:45;22.43;;;15.30;;
10277;SDS011;5184;51.376;7.148;2022-11-20T01:58:11;20.97;;;14.77;;
10277;SDS011;5184;51.376;7.148;2022-11-20T02:00:37;22.33;;;15.80;;
10277;SDS011;5184;51.376;7.148;2022-11-20T02:03:05;24.27;;;17.03;;
10277;SDS011;5184;51.376;7.148;2022-11-20T02:05:33;23.67;;;15.83;;
10277;SDS011;5184;51.376;7.148;2022-11-20T02:07:58;24.83;;;16.03;;
10277;SDS011;5184;51.376;7.148;2022-11-20T02:10:25;24.60;;;15.63;;
10277;SDS011;5184;51.376;7.148;2022-11-20T02:12:52;21.03;;;15.50;;
10277;SDS011;5184;51.376;7.148;2022-11-20T02:15:24;23.60;;;15.83;;
10277;SDS011;5184;51.376;7.148;2022-11-20T02:17:50;20.07;;;15.17;;
10277;SDS011;5184;51.376;7.148;2022-11-20T02:20:18;21.13;;;15.17;;
10277;SDS011;5184;51.376;7.148;2022-11-20T02:22:48;21.07;;;15.20;;
10277;SDS011;5184;51.376;7.148;2022-11-20T02:25:27;21.67;;;15.70;;
10277;SDS011;5184;51.376;7.148;2022-11-20T02:27:55;20.10;;;14.80;;
10277;SDS011;5184;51.376;7.148;2022-11-20T02:30:21;21.20;;;15.13;;
10277;SDS011;5184;51.376;7.148;2022-11-20T02:32:48;21.77;;;14.83;;
10277;SDS011;5184;51.376;7.148;2022-11-20T02:38:02;22.17;;;15.13;;
10277;SDS011;5184;51.376;7.148;2022-11-20T02:40:28;18.77;;;14.20;;
10277;SDS011;5184;51.376;7.148;2022-11-20T02:42:55;17.87;;;13.63;;
10277;SDS011;5184;51.376;7.148;2022-11-20T02:45:21;19.27;;;13.57;;
10277;SDS011;5184;51.376;7.148;2022-11-20T02:47:48;20.30;;;14.93;;
10277;SDS011;5184;51.376;7.148;2022-11-20T02:50:16;20.63;;;14.43;;
10277;SDS011;5184;51.376;7.148;2022-11-20T02:52:42;20.93;;;15.30;;
10277;SDS011;5184;51.376;7.148;2022-11-20T02:55:09;19.70;;;14.30;;
10277;SDS011;5184;51.376;7.148;2022-11-20T02:57:36;20.53;;;15.13;;
10277;SDS011;5184;51.376;7.148;2022-11-20T03:00:03;21.17;;;15.03;;
10277;SDS011;5184;51.376;7.148;2022-11-20T03:02:30;22.70;;;15.97;;
10277;SDS011;5184;51.376;7.148;2022-11-20T03:04:56;20.60;;;14.97;;
10277;SDS011;5184;51.376;7.148;2022-11-20T03:07:22;20.50;;;15.47;;
10277;SDS011;5184;51.376;7.148;2022-11-20T03:09:50;18.77;;;14.10;;
10277;SDS011;5184;51.376;7.148;2022-11-20T03:12:16;21.40;;;15.23;;
10277;SDS011;5184;51.376;7.148;2022-11-20T03:14:43;20.40;;;14.07;;
10277;SDS011;5184;51.376;7.148;2022-11-20T03:17:10;21.57;;;14.17;;
10277;SDS011;5184;51.376;7.148;2022-11-20T03:19:37;18.00;;;13.80;;
10277;SDS011;5184;51.376;7.148;2022-11-20T03:22:04;20.10;;;13.60;;
10277;SDS011;5184;51.376;7.148;2022-11-20T03:24:32;20.10;;;14.00;;
10277;SDS011;5184;51.376;7.148;2022-11-20T03:26:59;21.90;;;14.70;;
10277;SDS011;5184;51.376;7.148;2022-11-20T03:29:26;18.97;;;14.00;;
10277;SDS011;5184;51.376;7.148;2022-11-20T03:31:52;18.63;;;13.10;;
10277;SDS011;5184;51.376;7.148;2022-11-20T03:34:19;19.37;;;13.30;;
10277;SDS011;5184;51.376;7.148;2022-11-20T03:36:46;20.33;;;13.43;;
10277;SDS011;5184;51.376;7.148;2022-11-20T03:39:14;20.77;;;13.97;;
10277;SDS011;5184;51.376;7.148;2022-11-20T03:41:40;20.17;;;14.00;;
10277;SDS011;5184;51.376;7.148;2022-11-20T03:44:08;19.63;;;13.87;;
10277;SDS011;5184;51.376;7.148;2022-11-20T03:46:33;19.70;;;14.77;;
10277;SDS011;5184;51.376;7.148;2022-11-20T03:49:01;21.10;;;13.27;;
10277;SDS011;5184;51.376;7.148;2022-11-20T03:51:29;19.73;;;13.23;;
10277;SDS011;5184;51.376;7.148;2022-11-20T03:53:58;22.00;;;14.13;;
10277;SDS011;5184;51.376;7.148;2022-11-20T03:56:24;20.23;;;13.47;;
10277;SDS011;5184;51.376;7.148;2022-11-20T03:58:50;18.77;;;12.87;;
10277;SDS011;5184;51.376;7.148;2022-11-20T04:01:19;19.23;;;13.63;;
10277;SDS011;5184;51.376;7.148;2022-11-20T04:03:45;20.63;;;14.50;;
10277;SDS011;5184;51.376;7.148;2022-11-20T04:06:14;19.27;;;13.73;;
10277;SDS011;5184;51.376;7.148;2022-11-20T04:08:39;18.90;;;13.07;;
10277;SDS011;5184;51.376;7.148;2022-11-20T04:11:09;18.10;;;12.87;;
10277;SDS011;5184;51.376;7.148;2022-11-20T04:13:35;19.07;;;13.83;;
10277;SDS011;5184;51.376;7.148;2022-11-20T04:16:03;17.87;;;12.70;;
10277;SDS011;5184;51.376;7.148;2022-11-20T04:18:29;20.03;;;14.30;;
10277;SDS011;5184;51.376;7.148;2022-11-20T04:20:56;20.17;;;13.90;;
10277;SDS011;5184;51.376;7.148;2022-11-20T04:23:24;19.80;;;14.13;;
10277;SDS011;5184;51.376;7.148;2022-11-20T04:25:51;19.90;;;13.77;;
10277;SDS011;5184;51.376;7.148;2022-11-20T04:28:18;19.37;;;14.13;;
10277;SDS011;5184;51.376;7.148;2022-11-20T04:30:46;19.37;;;13.30;;
10277;SDS011;5184;51.376;7.148;2022-11-20T04:33:13;19.37;;;14.07;;
10277;SDS011;5184;51.376;7.148;2022-11-20T04:35:40;17.87;;;13.27;;
10277;SDS011;5184;51.376;7.148;2022-11-20T04:38:07;19.57;;;13.47;;
10277;SDS011;5184;51.376;7.148;2022-11-20T04:40:34;20.43;;;14.17;;
10277;SDS011;5184;51.376;7.148;2022-11-20T04:43:01;18.70;;;13.87;;
10277;SDS011;5184;51.376;7.148;2022-11-20T04:45:27;18.77;;;13.27;;
10277;SDS011;5184;51.376;7.148;2022-11-20T04:47:54;20.63;;;13.87;;
10277;SDS011;5184;51.376;7.148;2022-11-20T04:50:21;19.23;;;13.20;;
10277;SDS011;5184;51.376;7.148;2022-11-20T04:52:49;19.03;;;12.67;;
10277;SDS011;5184;51.376;7.148;2022-11-20T04:55:16;18.60;;;12.67;;
10277;SDS011;5184;51.376;7.148;2022-11-20T04:57:43;20.67;;;13.70;;
10277;SDS011;5184;51.376;7.148;2022-11-20T05:00:11;18.27;;;12.83;;
10277;SDS011;5184;51.376;7.148;2022-11-20T05:02:38;17.93;;;14.00;;
10277;SDS011;5184;51.376;7.148;2022-11-20T05:05:05;17.47;;;12.37;;
10277;SDS011;5184;51.376;7.148;2022-11-20T05:07:32;19.17;;;13.23;;
10277;SDS011;5184;51.376;7.148;2022-11-20T05:09:59;18.80;;;13.00;;
10277;SDS011;5184;51.376;7.148;2022-11-20T05:12:27;18.63;;;13.30;;
10277;SDS011;5184;51.376;7.148;2022-11-20T05:14:54;16.70;;;12.30;;
10277;SDS011;5184;51.376;7.148;2022-11-20T05:17:21;19.67;;;14.17;;
10277;SDS011;5184;51.376;7.148;2022-11-20T05:19:48;19.27;;;13.50;;
10277;SDS011;5184;51.376;7.148;2022-11-20T05:22:15;18.23;;;13.73;;
10277;SDS011;5184;51.376;7.148;2022-11-20T05:24:41;19.43;;;13.87;;
10277;SDS011;5184;51.376;7.148;2022-11-20T05:27:08;20.97;;;14.60;;
10277;SDS011;5184;51.376;7.148;2022-11-20T05:29:34;18.50;;;13.33;;
10277;SDS011;5184;51.376;7.148;2022-11-20T05:32:02;16.93;;;11.90;;
10277;SDS011;5184;51.376;7.148;2022-11-20T05:34:28;17.27;;;12.77;;
10277;SDS011;5184;51.376;7.148;2022-11-20T05:36:56;19.00;;;13.23;;
10277;SDS011;5184;51.376;7.148;2022-11-20T05:39:23;14.43;;;10.93;;
10277;SDS011;5184;51.376;7.148;2022-11-20T05:41:50;14.97;;;10.37;;
10277;SDS011;5184;51.376;7.148;2022-11-20T05:44:16;16.90;;;12.43;;
10277;SDS011;5184;51.376;7.148;2022-11-20T05:46:43;17.10;;;12.33;;
10277;SDS011;5184;51.376;7.148;2022-11-20T05:49:10;18.57;;;13.57;;
10277;SDS011;5184;51.376;7.148;2022-11-20T05:51:36;16.90;;;12.50;;
10277;SDS011;5184;51.376;7.148;2022-11-20T05:54:04;16.67;;;12.30;;
10277;SDS011;5184;51.376;7.148;2022-11-20T05:56:31;18.10;;;12.67;;
10277;SDS011;5184;51.376;7.148;2022-11-20T05:58:58;16.70;;;12.23;;
10277;SDS011;5184;51.376;7.148;2022-11-20T06:01:26;19.50;;;14.30;;
10277;SDS011;5184;51.376;7.148;2022-11-20T06:03:53;19.70;;;15.07;;
10277;SDS011;5184;51.376;7.148;2022-11-20T06:06:19;20.67;;;15.33;;
10277;SDS011;5184;51.376;7.148;2022-11-20T06:08:46;19.43;;;14.77;;
10277;SDS011;5184;51.376;7.148;2022-11-20T06:11:12;19.17;;;15.03;;
10277;SDS011;5184;51.376;7.148;2022-11-20T06:13:39;20.33;;;15.00;;
10277;SDS011;5184;51.376;7.148;2022-11-20T06:16:06;17.00;;;13.93;;
10277;SDS011;5184;51.376;7.148;2022-11-20T06:18:33;20.10;;;14.70;;
10277;SDS011;5184;51.376;7.148;2022-11-20T06:21:05;16.90;;;13.03;;
10277;SDS011;5184;51.376;7.148;2022-11-20T06:23:31;17.97;;;13.97;;
10277;SDS011;5184;51.376;7.148;2022-11-20T06:26:01;18.87;;;13.77;;
10277;SDS011;5184;51.376;7.148;2022-11-20T06:28:27;17.07;;;13.77;;
10277;SDS011;5184;51.376;7.148;2022-11-20T06:30:54;18.57;;;13.30;;
10277;SDS011;5184;51.376;7.148;2022-11-20T06:33:20;16.23;;;12.93;;
10277;SDS011;5184;51.376;7.148;2022-11-20T06:35:47;18.70;;;13.80;;
10277;SDS011;5184;51.376;7.148;2022-11-20T06:38:13;17.83;;;13.03;;
10277;SDS011;5184;51.376;7.148;2022-11-20T06:40:40;19.07;;;14.17;;
10277;SDS011;5184;51.376;7.148;2022-11-20T06:43:08;20.10;;;14.40;;
10277;SDS011;5184;51.376;7.148;2022-11-20T06:45:35;18.93;;;14.37;;
10277;SDS011;5184;51.376;7.148;2022-11-20T06:48:02;17.33;;;13.77;;
10277;SDS011;5184;51.376;7.148;2022-11-20T06:50:29;19.53;;;14.07;;
10277;SDS011;5184;51.376;7.148;2022-11-20T06:52:55;18.00;;;14.00;;
10277;SDS011;5184;51.376;7.148;2022-11-20T06:55:22;16.63;;;13.27;;
10277;SDS011;5184;51.376;7.148;2022-11-20T06:57:50;19.87;;;14.17;;
10277;SDS011;5184;51.376;7.148;2022-11-20T07:00:17;18.97;;;13.13;;
10277;SDS011;5184;51.376;7.148;2022-11-20T07:02:43;18.23;;;13.90;;
10277;SDS011;5184;51.376;7.148;2022-11-20T07:05:10;17.77;;;13.83;;
10277;SDS011;5184;51.376;7.148;2022-11-20T07:07:37;18.07;;;13.83;;
10277;SDS011;5184;51.376;7.148;2022-11-20T07:10:03;18.67;;;14.00;;
10277;SDS011;5184;51.376;7.148;2022-11-20T07:12:30;20.60;;;14.60;;
10277;SDS011;5184;51.376;7.148;2022-11-20T07:14:57;18.47;;;14.20;;
10277;SDS011;5184;51.376;7.148;2022-11-20T07:17:23;16.27;;;13.00;;
10277;SDS011;5184;51.376;7.148;2022-11-20T07:19:50;19.60;;;13.53;;
10277;SDS011;5184;51.376;7.148;2022-11-20T07:22:17;20.37;;;14.20;;
10277;SDS011;5184;51.376;7.148;2022-11-20T07:24:44;19.03;;;13.93;;
10277;SDS011;5184;51.376;7.148;2022-11-20T07:27:11;18.87;;;13.73;;
10277;SDS011;5184;51.376;7.148;2022-11-20T07:29:39;18.00;;;12.93;;
10277;SDS011;5184;51.376;7.148;2022-11-20T07:32:06;19.17;;;13.77;;
10277;SDS011;5184;51.376;7.148;2022-11-20T07:34:33;19.30;;;14.53;;
10277;SDS011;5184;51.376;7.148;2022-11-20T07:36:59;20.33;;;15.03;;
10277;SDS011;5184;51.376;7.148;2022-11-20T07:39:26;19.33;;;13.10;;
10277;SDS011;5184;51.376;7.148;2022-11-20T07:41:53;20.33;;;14.20;;
10277;SDS011;5184;51.376;7.148;2022-11-20T07:44:20;19.37;;;14.77;;
10277;SDS011;5184;51.376;7.148;2022-11-20T07:46:47;19.47;;;13.83;;
10277;SDS011;5184;51.376;7.148;2022-11-20T07:49:15;20.00;;;14.27;;
10277;SDS011;5184;51.376;7.148;2022-11-20T07:51:42;19.93;;;14.90;;
10277;SDS011;5184;51.376;7.148;2022-11-20T07:54:09;23.83;;;15.13;;
10277;SDS011;5184;51.376;7.148;2022-11-20T07:56:35;20.80;;;15.17;;
10277;SDS011;5184;51.376;7.148;2022-11-20T07:59:02;20.27;;;14.57;;
10277;SDS011;5184;51.376;7.148;2022-11-20T08:01:29;18.70;;;14.33;;
10277;SDS011;5184;51.376;7.148;2022-11-20T08:03:57;19.30;;;14.43;;
10277;SDS011;5184;51.376;7.148;2022-11-20T08:06:24;21.33;;;15.27;;
10277;SDS011;5184;51.376;7.148;2022-11-20T08:08:51;20.13;;;15.07;;
10277;SDS011;5184;51.376;7.148;2022-11-20T08:11:19;20.47;;;15.27;;
10277;SDS011;5184;51.376;7.148;2022-11-20T08:13:51;19.20;;;14.77;;
10277;SDS011;5184;51.376;7.148;2022-11-20T08:16:23;18.33;;;14.20;;
10277;SDS011;5184;51.376;7.148;2022-11-20T08:18:50;20.53;;;15.00;;
10277;SDS011;5184;51.376;7.148;2022-11-20T08:21:16;20.73;;;15.43;;
10277;SDS011;5184;51.376;7.148;2022-11-20T08:23:43;19.50;;;14.60;;
10277;SDS011;5184;51.376;7.148;2022-11-20T08:26:10;18.47;;;14.70;;
10277;SDS011;5184;51.376;7.148;2022-11-20T08:28:36;17.97;;;13.60;;
10277;SDS011;5184;51.376;7.148;2022-11-20T08:31:04;20.57;;;14.53;;
10277;SDS011;5184;51.376;7.148;2022-11-20T08:33:30;20.60;;;15.73;;
10277;SDS011;5184;51.376;7.148;2022-11-20T08:36:00;20.17;;;14.90;;
10277;SDS011;5184;51.376;7.148;2022-11-20T08:38:26;22.67;;;15.70;;
10277;SDS011;5184;51.376;7.148;2022-11-20T08:40:56;20.37;;;14.87;;
10277;SDS011;5184;51.376;7.148;2022-11-20T08:43:25;22.20;;;15.90;;
10277;SDS011;5184;51.376;7.148;2022-11-20T08:45:51;22.30;;;16.07;;
10277;SDS011;5184;51.376;7.148;2022-11-20T08:48:18;22.73;;;16.50;;
10277;SDS011;5184;51.376;7.148;2022-11-20T08:50:45;21.77;;;16.80;;
10277;SDS011;5184;51.376;7.148;2022-11-20T08:53:12;20.23;;;15.37;;
10277;SDS011;5184;51.376;7.148;2022-11-20T08:55:39;21.93;;;16.83;;
10277;SDS011;5184;51.376;7.148;2022-11-20T08:58:06;24.13;;;17.47;;
10277;SDS011;5184;51.376;7.148;2022-11-20T09:00:33;22.47;;;16.90;;
10277;SDS011;5184;51.376;7.148;2022-11-20T09:02:59;24.13;;;17.93;;
10277;SDS011;5184;51.376;7.148;2022-11-20T09:05:26;23.23;;;17.53;;
10277;SDS011;5184;51.376;7.148;2022-11-20T09:07:55;22.17;;;17.57;;
10277;SDS011;5184;51.376;7.148;2022-11-20T09:10:26;21.97;;;18.07;;
10277;SDS011;5184;51.376;7.148;2022-11-20T09:12:52;22.63;;;17.93;;
10277;SDS011;5184;51.376;7.148;2022-11-20T09:15:19;23.90;;;17.93;;
10277;SDS011;5184;51.376;7.148;2022-11-20T09:17:50;26.93;;;20.10;;
10277;SDS011;5184;51.376;7.148;2022-11-20T09:20:19;24.53;;;18.57;;
10277;SDS011;5184;51.376;7.148;2022-11-20T09:22:45;25.97;;;18.07;;
10277;SDS011;5184;51.376;7.148;2022-11-20T09:25:12;22.27;;;16.80;;
10277;SDS011;5184;51.376;7.148;2022-11-20T09:27:38;22.37;;;16.33;;
10277;SDS011;5184;51.376;7.148;2022-11-20T09:30:05;22.13;;;15.73;;
10277;SDS011;5184;51.376;7.148;2022-11-20T09:32:32;19.37;;;14.90;;
10277;SDS011;5184;51.376;7.148;2022-11-20T09:34:59;18.43;;;13.30;;
10277;SDS011;5184;51.376;7.148;2022-11-20T09:37:26;16.77;;;12.90;;
10277;SDS011;5184;51.376;7.148;2022-11-20T09:39:52;17.37;;;13.13;;
10277;SDS011;5184;51.376;7.148;2022-11-20T09:42:24;17.13;;;12.77;;
10277;SDS011;5184;51.376;7.148;2022-11-20T09:45:21;19.30;;;14.60;;
10277;SDS011;5184;51.376;7.148;2022-11-20T09:53:01;14.00;;;10.93;;
10277;SDS011;5184;51.376;7.148;2022-11-20T09:55:21;13.07;;;10.30;;
10277;SDS011;5184;51.376;7.148;2022-11-20T09:57:50;13.40;;;9.20;;
10277;SDS011;5184;51.376;7.148;2022-11-20T10:00:16;12.87;;;9.37;;
10277;SDS011;5184;51.376;7.148;2022-11-20T10:02:48;13.03;;;10.37;;
10277;SDS011;5184;51.376;7.148;2022-11-20T10:05:21;13.83;;;11.13;;
10277;SDS011;5184;51.376;7.148;2022-11-20T10:08:09;11.80;;;9.47;;
10277;SDS011;5184;51.376;7.148;2022-11-20T10:10:40;10.27;;;7.80;;
10277;SDS011;5184;51.376;7.148;2022-11-20T10:13:12;12.73;;;8.67;;
10277;SDS011;5184;51.376;7.148;2022-11-20T10:15:41;9.97;;;7.70;;
10277;SDS011;5184;51.376;7.148;2022-11-20T10:21:09;8.50;;;7.00;;
10277;SDS011;5184;51.376;7.148;2022-11-20T10:23:44;9.47;;;6.80;;
10277;SDS011;5184;51.376;7.148;2022-11-20T10:26:31;8.47;;;6.57;;
10277;SDS011;5184;51.376;7.148;2022-11-20T10:29:16;9.13;;;6.77;;
10277;SDS011;5184;51.376;7.148;2022-11-20T10:31:44;9.23;;;7.47;;
10277;SDS011;5184;51.376;7.148;2022-11-20T10:34:18;9.30;;;7.00;;
10277;SDS011;5184;51.376;7.148;2022-11-20T10:36:46;10.67;;;8.00;;
10277;SDS011;5184;51.376;7.148;2022-11-20T10:41:49;9.93;;;8.10;;
10277;SDS011;5184;51.376;7.148;2022-11-20T10:44:16;12.07;;;9.13;;
10277;SDS011;5184;51.376;7.148;2022-11-20T10:46:43;10.60;;;8.23;;
10277;SDS011;5184;51.376;7.148;2022-11-20T10:49:12;9.77;;;7.37;;
10277;SDS011;5184;51.376;7.148;2022-11-20T10:51:42;10.57;;;7.87;;
10277;SDS011;5184;51.376;7.148;2022-11-20T10:56:54;10.93;;;8.00;;
10277;SDS011;5184;51.376;7.148;2022-11-20T11:01:58;12.10;;;8.47;;
10277;SDS011;5184;51.376;7.148;2022-11-20T11:07:12;12.57;;;8.70;;
10277;SDS011;5184;51.376;7.148;2022-11-20T11:09:43;12.23;;;8.60;;
10277;SDS011;5184;51.376;7.148;2022-11-20T11:12:09;10.67;;;8.00;;
10277;SDS011;5184;51.376;7.148;2022-11-20T11:14:42;13.23;;;9.23;;
10277;SDS011;5184;51.376;7.148;2022-11-20T11:17:18;15.13;;;9.03;;
10277;SDS011;5184;51.376;7.148;2022-11-20T11:19:36;12.13;;;9.33;;
10277;SDS011;5184;51.376;7.148;2022-11-20T11:22:02;12.50;;;9.03;;
10277;SDS011;5184;51.376;7.148;2022-11-20T11:24:29;10.80;;;8.40;;
10277;SDS011;5184;51.376;7.148;2022-11-20T11:26:59;11.40;;;7.97;;
10277;SDS011;5184;51.376;7.148;2022-11-20T11:29:25;13.87;;;8.77;;
10277;SDS011;5184;51.376;7.148;2022-11-20T11:32:02;12.13;;;9.20;;
10277;SDS011;5184;51.376;7.148;2022-11-20T11:34:18;13.83;;;9.50;;
10277;SDS011;5184;51.376;7.148;2022-11-20T11:39:18;12.07;;;9.60;;
10277;SDS011;5184;51.376;7.148;2022-11-20T11:41:44;12.53;;;9.53;;
10277;SDS011;5184;51.376;7.148;2022-11-20T11:44:15;15.13;;;10.70;;
10277;SDS011;5184;51.376;7.148;2022-11-20T11:46:53;12.80;;;9.23;;
10277;SDS011;5184;51.376;7.148;2022-11-20T11:49:19;13.23;;;10.03;;
10277;SDS011;5184;51.376;7.148;2022-11-20T11:54:46;12.53;;;9.33;;
10277;SDS011;5184;51.376;7.148;2022-11-20T11:57:20;14.67;;;10.10;;
10277;SDS011;5184;51.376;7.148;2022-11-20T11:59:53;16.10;;;10.03;;
10277;SDS011;5184;51.376;7.148;2022-11-20T12:02:32;13.40;;;10.90;;
10277;SDS011;5184;51.376;7.148;2022-11-20T12:05:00;13.77;;;10.00;;
10277;SDS011;5184;51.376;7.148;2022-11-20T12:07:32;15.50;;;10.67;;
10277;SDS011;5184;51.376;7.148;2022-11-20T12:09:57;15.83;;;11.03;;
10277;SDS011;5184;51.376;7.148;2022-11-20T12:12:27;15.93;;;11.30;;
10277;SDS011;5184;51.376;7.148;2022-11-20T12:14:54;15.73;;;11.03;;
10277;SDS011;5184;51.376;7.148;2022-11-20T12:17:20;14.60;;;11.17;;
10277;SDS011;5184;51.376;7.148;2022-11-20T12:19:47;16.13;;;10.90;;
10277;SDS011;5184;51.376;7.148;2022-11-20T12:22:19;15.23;;;11.37;;
10277;SDS011;5184;51.376;7.148;2022-11-20T12:27:43;16.00;;;11.53;;
10277;SDS011;5184;51.376;7.148;2022-11-20T12:30:10;14.77;;;10.87;;
10277;SDS011;5184;51.376;7.148;2022-11-20T12:35:32;16.60;;;12.60;;
10277;SDS011;5184;51.376;7.148;2022-11-20T12:38:28;18.13;;;12.73;;
10277;SDS011;5184;51.376;7.148;2022-11-20T12:40:57;16.30;;;11.77;;
10277;SDS011;5184;51.376;7.148;2022-11-20T12:43:45;17.50;;;13.33;;
10277;SDS011;5184;51.376;7.148;2022-11-20T12:46:18;17.73;;;12.97;;
10277;SDS011;5184;51.376;7.148;2022-11-20T12:48:48;16.53;;;11.77;;
10277;SDS011;5184;51.376;7.148;2022-11-20T12:51:34;17.30;;;12.00;;
10277;SDS011;5184;51.376;7.148;2022-11-20T12:54:22;18.57;;;13.47;;
10277;SDS011;5184;51.376;7.148;2022-11-20T12:56:50;18.37;;;13.30;;
10277;SDS011;5184;51.376;7.148;2022-11-20T13:00:22;19.10;;;13.17;;
10277;SDS011;5184;51.376;7.148;2022-11-20T13:02:09;17.63;;;13.13;;
10277;SDS011;5184;51.376;7.148;2022-11-20T13:04:34;19.10;;;13.70;;
10277;SDS011;5184;51.376;7.148;2022-11-20T13:07:01;17.77;;;12.63;;
10277;SDS011;5184;51.376;7.148;2022-11-20T13:09:27;18.70;;;13.33;;
10277;SDS011;5184;51.376;7.148;2022-11-20T13:12:01;19.37;;;13.17;;
10277;SDS011;5184;51.376;7.148;2022-11-20T13:14:29;18.57;;;13.67;;
10277;SDS011;5184;51.376;7.148;2022-11-20T13:17:11;20.67;;;15.23;;
10277;SDS011;5184;51.376;7.148;2022-11-20T13:19:40;20.50;;;14.73;;
10277;SDS011;5184;51.376;7.148;2022-11-20T13:22:08;18.80;;;13.50;;
10277;SDS011;5184;51.376;7.148;2022-11-20T13:24:34;19.33;;;13.83;;
10277;SDS011;5184;51.376;7.148;2022-11-20T13:27:17;19.27;;;13.80;;
10277;SDS011;5184;51.376;7.148;2022-11-20T13:32:24;20.87;;;13.80;;
10277;SDS011;5184;51.376;7.148;2022-11-20T13:35:05;19.60;;;13.87;;
10277;SDS011;5184;51.376;7.148;2022-11-20T13:37:33;20.50;;;14.63;;
10277;SDS011;5184;51.376;7.148;2022-11-20T13:42:45;19.53;;;14.47;;
10277;SDS011;5184;51.376;7.148;2022-11-20T13:47:50;21.40;;;14.77;;
10277;SDS011;5184;51.376;7.148;2022-11-20T13:50:16;23.23;;;14.87;;
10277;SDS011;5184;51.376;7.148;2022-11-20T13:52:50;22.07;;;15.20;;
10277;SDS011;5184;51.376;7.148;2022-11-20T13:55:18;17.90;;;13.80;;
10277;SDS011;5184;51.376;7.148;2022-11-20T13:57:53;20.00;;;14.53;;
10277;SDS011;5184;51.376;7.148;2022-11-20T14:00:20;20.27;;;15.57;;
10277;SDS011;5184;51.376;7.148;2022-11-20T14:02:52;20.90;;;14.70;;
10277;SDS011;5184;51.376;7.148;2022-11-20T14:05:19;21.83;;;15.10;;
10277;SDS011;5184;51.376;7.148;2022-11-20T14:07:46;22.30;;;15.20;;
10277;SDS011;5184;51.376;7.148;2022-11-20T14:10:24;22.83;;;14.87;;
10277;SDS011;5184;51.376;7.148;2022-11-20T14:12:51;21.53;;;15.23;;
10277;SDS011;5184;51.376;7.148;2022-11-20T14:15:25;19.83;;;14.33;;
10277;SDS011;5184;51.376;7.148;2022-11-20T14:17:53;24.40;;;14.73;;
10277;SDS011;5184;51.376;7.148;2022-11-20T14:20:20;22.03;;;15.37;;
10277;SDS011;5184;51.376;7.148;2022-11-20T14:22:48;20.50;;;14.10;;
10277;SDS011;5184;51.376;7.148;2022-11-20T14:25:22;21.03;;;15.53;;
10277;SDS011;5184;51.376;7.148;2022-11-20T14:27:51;22.47;;;15.30;;
10277;SDS011;5184;51.376;7.148;2022-11-20T14:30:20;19.57;;;15.03;;
10277;SDS011;5184;51.376;7.148;2022-11-20T14:32:46;21.27;;;15.07;;
10277;SDS011;5184;51.376;7.148;2022-11-20T14:35:16;23.87;;;15.87;;
10277;SDS011;5184;51.376;7.148;2022-11-20T14:37:40;26.50;;;17.03;;
10277;SDS011;5184;51.376;7.148;2022-11-20T14:40:25;23.13;;;15.90;;
10277;SDS011;5184;51.376;7.148;2022-11-20T14:42:52;21.60;;;15.00;;
10277;SDS011;5184;51.376;7.148;2022-11-20T14:45:19;22.43;;;15.70;;
10277;SDS011;5184;51.376;7.148;2022-11-20T14:47:45;21.53;;;12.57;;
10277;SDS011;5184;51.376;7.148;2022-11-20T14:50:15;23.57;;;16.30;;
10277;SDS011;5184;51.376;7.148;2022-11-20T14:52:51;26.67;;;16.13;;
10277;SDS011;5184;51.376;7.148;2022-11-20T14:57:54;24.87;;;17.07;;
10277;SDS011;5184;51.376;7.148;2022-11-20T15:00:19;22.73;;;15.70;;
10277;SDS011;5184;51.376;7.148;2022-11-20T15:02:45;25.80;;;17.30;;
10277;SDS011;5184;51.376;7.148;2022-11-20T15:05:11;23.37;;;16.57;;
10277;SDS011;5184;51.376;7.148;2022-11-20T15:07:40;25.20;;;16.57;;
10277;SDS011;5184;51.376;7.148;2022-11-20T15:10:08;22.70;;;16.50;;
10277;SDS011;5184;51.376;7.148;2022-11-20T15:12:35;25.27;;;16.63;;
10277;SDS011;5184;51.376;7.148;2022-11-20T15:15:02;24.70;;;16.73;;
10277;SDS011;5184;51.376;7.148;2022-11-20T15:17:29;27.83;;;17.77;;
10277;SDS011;5184;51.376;7.148;2022-11-20T15:19:55;24.77;;;17.27;;
10277;SDS011;5184;51.376;7.148;2022-11-20T15:22:22;21.47;;;16.03;;
10277;SDS011;5184;51.376;7.148;2022-11-20T15:24:49;26.00;;;17.27;;
10277;SDS011;5184;51.376;7.148;2022-11-20T15:27:16;23.90;;;16.23;;